Arborfield, Canada
Current Conditions -  °F | °C
As of 2:00 PM on Saturday 20 Dec 2014 (Local Time) from CYBU Reporting Station
Overcast Overcast  
Wind Chill: 13°   Ceiling: 700
Heat Index: 21°   Visibility: 9mi
Dew Point: 19°   Wind: 7mph
Humidity: 93%   Direction: 80°E
Pressure: 29.76"   Gusts: NA
Location:  53.12°N, 103.65°W
Report Text: CYBU 202000Z AUTO 08006KT 9SM OVC007 M06/M07 A2976 RMK SLP104
Loading
Personal Weather Stations






























Interactive Weather Map New forecast layout! Learn more

10-Day Weather Forecast

Advertisements
Track Severe Weather on mobile